sensor_id;sensor_type;location;lat;lon;timestamp;pressure;altitude;pressure_sealevel;temperature;humidity
3122;BME280;1571;52.524;14.104;2022-11-03T00:01:38;101661.31;;;3.26;100.00
3122;BME280;1571;52.524;14.104;2022-11-03T00:04:09;101659.63;;;3.25;100.00
3122;BME280;1571;52.524;14.104;2022-11-03T00:06:38;101663.28;;;3.15;100.00
3122;BME280;1571;52.524;14.104;2022-11-03T00:09:09;101658.94;;;3.13;100.00
3122;BME280;1571;52.524;14.104;2022-11-03T00:11:40;101653.84;;;3.04;100.00
3122;BME280;1571;52.524;14.104;2022-11-03T00:14:09;101652.84;;;3.10;100.00
3122;BME280;1571;52.524;14.104;2022-11-03T00:16:40;101660.63;;;3.16;100.00
3122;BME280;1571;52.524;14.104;2022-11-03T00:19:10;101660.88;;;3.02;100.00
3122;BME280;1571;52.524;14.104;2022-11-03T00:21:41;101656.38;;;3.09;100.00
3122;BME280;1571;52.524;14.104;2022-11-03T00:24:10;101660.88;;;3.02;100.00
3122;BME280;1571;52.524;14.104;2022-11-03T00:26:40;101654.81;;;2.97;100.00
3122;BME280;1571;52.524;14.104;2022-11-03T00:29:11;101646.38;;;2.80;100.00
3122;BME280;1571;52.524;14.104;2022-11-03T00:31:43;101653.19;;;2.90;100.00
3122;BME280;1571;52.524;14.104;2022-11-03T00:34:12;101661.44;;;3.20;100.00
3122;BME280;1571;52.524;14.104;2022-11-03T00:36:42;101657.09;;;3.19;100.00
3122;BME280;1571;52.524;14.104;2022-11-03T00:39:12;101654.63;;;3.09;100.00
3122;BME280;1571;52.524;14.104;2022-11-03T00:41:40;101657.38;;;3.02;100.00
3122;BME280;1571;52.524;14.104;2022-11-03T00:44:09;101658.88;;;3.15;100.00
3122;BME280;1571;52.524;14.104;2022-11-03T00:46:42;101648.44;;;3.12;100.00
3122;BME280;1571;52.524;14.104;2022-11-03T00:49:11;101645.66;;;3.21;100.00
3122;BME280;1571;52.524;14.104;2022-11-03T00:51:39;101646.34;;;3.31;100.00
3122;BME280;1571;52.524;14.104;2022-11-03T00:54:08;101647.25;;;3.30;100.00
3122;BME280;1571;52.524;14.104;2022-11-03T00:56:38;101645.75;;;3.17;100.00
3122;BME280;1571;52.524;14.104;2022-11-03T00:59:08;101658.13;;;3.08;100.00
3122;BME280;1571;52.524;14.104;2022-11-03T01:01:39;101657.25;;;3.09;100.00
3122;BME280;1571;52.524;14.104;2022-11-03T01:04:15;101660.03;;;3.00;100.00
3122;BME280;1571;52.524;14.104;2022-11-03T01:07:03;101651.16;;;3.07;100.00
3122;BME280;1571;52.524;14.104;2022-11-03T01:09:35;101654.19;;;3.36;100.00
3122;BME280;1571;52.524;14.104;2022-11-03T01:12:06;101652.44;;;3.33;100.00
3122;BME280;1571;52.524;14.104;2022-11-03T01:14:38;101643.78;;;3.28;100.00
3122;BME280;1571;52.524;14.104;2022-11-03T01:17:11;101643.03;;;3.21;100.00
3122;BME280;1571;52.524;14.104;2022-11-03T01:19:42;101643.91;;;3.22;100.00
3122;BME280;1571;52.524;14.104;2022-11-03T01:22:11;101638.81;;;3.12;100.00
3122;BME280;1571;52.524;14.104;2022-11-03T01:24:42;101631.06;;;3.06;100.00
3122;BME280;1571;52.524;14.104;2022-11-03T01:27:14;101630.16;;;3.07;100.00
3122;BME280;1571;52.524;14.104;2022-11-03T01:29:44;101633.63;;;3.09;100.00
3122;BME280;1571;52.524;14.104;2022-11-03T01:32:13;101624.84;;;3.10;100.00
3122;BME280;1571;52.524;14.104;2022-11-03T01:34:44;101621.25;;;3.18;100.00
3122;BME280;1571;52.524;14.104;2022-11-03T01:37:12;101624.84;;;3.10;100.00
3122;BME280;1571;52.524;14.104;2022-11-03T01:39:41;101631.00;;;3.11;100.00
3122;BME280;1571;52.524;14.104;2022-11-03T01:42:11;101631.84;;;3.11;100.00
3122;BME280;1571;52.524;14.104;2022-11-03T01:44:42;101619.41;;;3.23;100.00
3122;BME280;1571;52.524;14.104;2022-11-03T01:47:21;101625.06;;;2.98;100.00
3122;BME280;1571;52.524;14.104;2022-11-03T01:49:57;101627.41;;;3.15;100.00
3122;BME280;1571;52.524;14.104;2022-11-03T01:52:30;101623.56;;;3.33;100.00
3122;BME280;1571;52.524;14.104;2022-11-03T01:55:05;101622.91;;;3.22;100.00
3122;BME280;1571;52.524;14.104;2022-11-03T01:57:38;101618.41;;;3.30;100.00
3122;BME280;1571;52.524;14.104;2022-11-03T02:00:12;101612.63;;;3.58;100.00
3122;BME280;1571;52.524;14.104;2022-11-03T02:02:43;101613.81;;;3.41;100.00
3122;BME280;1571;52.524;14.104;2022-11-03T02:05:14;101611.84;;;3.52;100.00
3122;BME280;1571;52.524;14.104;2022-11-03T02:07:49;101616.25;;;3.50;100.00
3122;BME280;1571;52.524;14.104;2022-11-03T02:10:19;101611.78;;;3.55;100.00
3122;BME280;1571;52.524;14.104;2022-11-03T02:12:48;101616.00;;;3.64;100.00
3122;BME280;1571;52.524;14.104;2022-11-03T02:15:18;101606.09;;;3.79;100.00
3122;BME280;1571;52.524;14.104;2022-11-03T02:17:50;101606.22;;;3.72;100.00
3122;BME280;1571;52.524;14.104;2022-11-03T02:20:23;101606.22;;;3.71;100.00
3122;BME280;1571;52.524;14.104;2022-11-03T02:23:03;101593.06;;;3.74;100.00
3122;BME280;1571;52.524;14.104;2022-11-03T02:25:42;101599.38;;;3.64;100.00
3122;BME280;1571;52.524;14.104;2022-11-03T02:28:12;101589.69;;;3.67;100.00
3122;BME280;1571;52.524;14.104;2022-11-03T02:30:45;101601.88;;;3.70;100.00
3122;BME280;1571;52.524;14.104;2022-11-03T02:33:30;101592.88;;;3.83;100.00
3122;BME280;1571;52.524;14.104;2022-11-03T02:36:05;101600.69;;;3.85;100.00
3122;BME280;1571;52.524;14.104;2022-11-03T02:38:44;101602.13;;;4.00;100.00
3122;BME280;1571;52.524;14.104;2022-11-03T02:41:17;101609.31;;;3.91;100.00
3122;BME280;1571;52.524;14.104;2022-11-03T02:43:46;101600.34;;;4.02;100.00
3122;BME280;1571;52.524;14.104;2022-11-03T02:46:16;101608.34;;;3.97;100.00
3122;BME280;1571;52.524;14.104;2022-11-03T02:48:46;101606.44;;;4.04;100.00
3122;BME280;1571;52.524;14.104;2022-11-03T02:51:15;101612.66;;;4.00;100.00
3122;BME280;1571;52.524;14.104;2022-11-03T02:53:47;101604.88;;;3.93;100.00
3122;BME280;1571;52.524;14.104;2022-11-03T02:56:22;101602.34;;;3.90;100.00
3122;BME280;1571;52.524;14.104;2022-11-03T02:58:56;101594.47;;;3.89;100.00
3122;BME280;1571;52.524;14.104;2022-11-03T03:01:30;101583.31;;;3.79;100.00
3122;BME280;1571;52.524;14.104;2022-11-03T03:04:04;101594.03;;;3.68;100.00
3122;BME280;1571;52.524;14.104;2022-11-03T03:06:36;101571.34;;;3.64;100.00
3122;BME280;1571;52.524;14.104;2022-11-03T03:09:10;101577.72;;;3.52;100.00
3122;BME280;1571;52.524;14.104;2022-11-03T03:11:44;101574.47;;;3.40;100.00
3122;BME280;1571;52.524;14.104;2022-11-03T03:14:17;101577.16;;;3.35;100.00
3122;BME280;1571;52.524;14.104;2022-11-03T03:16:53;101578.63;;;3.51;100.00
3122;BME280;1571;52.524;14.104;2022-11-03T03:19:32;101570.78;;;3.50;100.00
3122;BME280;1571;52.524;14.104;2022-11-03T03:22:11;101562.88;;;3.51;100.00
3122;BME280;1571;52.524;14.104;2022-11-03T03:24:47;101549.97;;;3.39;100.00
3122;BME280;1571;52.524;14.104;2022-11-03T03:27:22;101542.28;;;3.30;100.00
3122;BME280;1571;52.524;14.104;2022-11-03T03:29:56;101531.59;;;3.41;100.00
3122;BME280;1571;52.524;14.104;2022-11-03T03:32:27;101531.59;;;3.39;100.00
3122;BME280;1571;52.524;14.104;2022-11-03T03:35:01;101525.03;;;3.60;100.00
3122;BME280;1571;52.524;14.104;2022-11-03T03:37:32;101533.63;;;3.68;100.00
3122;BME280;1571;52.524;14.104;2022-11-03T03:40:07;101533.38;;;3.81;100.00
3122;BME280;1571;52.524;14.104;2022-11-03T03:42:41;101535.13;;;3.80;100.00
3122;BME280;1571;52.524;14.104;2022-11-03T03:45:11;101541.69;;;3.61;100.00
3122;BME280;1571;52.524;14.104;2022-11-03T03:47:40;101532.50;;;3.80;100.00
3122;BME280;1571;52.524;14.104;2022-11-03T03:50:09;101527.03;;;3.89;100.00
3122;BME280;1571;52.524;14.104;2022-11-03T03:52:37;101541.22;;;3.82;100.00
3122;BME280;1571;52.524;14.104;2022-11-03T03:55:13;101544.63;;;3.87;100.00
3122;BME280;1571;52.524;14.104;2022-11-03T03:57:45;101540.66;;;4.07;100.00
3122;BME280;1571;52.524;14.104;2022-11-03T04:00:14;101542.75;;;3.92;100.00
3122;BME280;1571;52.524;14.104;2022-11-03T04:02:43;101549.50;;;4.04;100.00
3122;BME280;1571;52.524;14.104;2022-11-03T04:05:11;101544.22;;;4.06;100.00
3122;BME280;1571;52.524;14.104;2022-11-03T04:07:41;101552.19;;;4.01;100.00
3122;BME280;1571;52.524;14.104;2022-11-03T04:10:17;101550.25;;;4.09;100.00
3122;BME280;1571;52.524;14.104;2022-11-03T04:12:49;101553.13;;;3.99;100.00
3122;BME280;1571;52.524;14.104;2022-11-03T04:15:35;101535.41;;;4.07;100.00
3122;BME280;1571;52.524;14.104;2022-11-03T04:18:23;101541.25;;;4.20;100.00
3122;BME280;1571;52.524;14.104;2022-11-03T04:21:11;101543.16;;;4.13;100.00
3122;BME280;1571;52.524;14.104;2022-11-03T04:23:58;101550.50;;;3.99;100.00
3122;BME280;1571;52.524;14.104;2022-11-03T04:26:28;101551.81;;;4.18;100.00
3122;BME280;1571;52.524;14.104;2022-11-03T04:28:59;101539.47;;;4.22;100.00
3122;BME280;1571;52.524;14.104;2022-11-03T04:31:33;101544.47;;;3.93;100.00
3122;BME280;1571;52.524;14.104;2022-11-03T04:34:03;101549.50;;;4.03;100.00
3122;BME280;1571;52.524;14.104;2022-11-03T04:36:37;101549.31;;;4.12;100.00
3122;BME280;1571;52.524;14.104;2022-11-03T04:39:14;101545.16;;;4.02;100.00
3122;BME280;1571;52.524;14.104;2022-11-03T04:41:51;101541.72;;;3.98;100.00
3122;BME280;1571;52.524;14.104;2022-11-03T04:44:25;101536.75;;;3.87;100.00
3122;BME280;1571;52.524;14.104;2022-11-03T04:46:55;101537.53;;;3.91;100.00
3122;BME280;1571;52.524;14.104;2022-11-03T04:49:24;101528.91;;;3.84;100.00
3122;BME280;1571;52.524;14.104;2022-11-03T04:51:52;101536.81;;;3.83;100.00
3122;BME280;1571;52.524;14.104;2022-11-03T04:54:22;101528.06;;;3.84;100.00
3122;BME280;1571;52.524;14.104;2022-11-03T04:56:50;101528.88;;;3.87;100.00
3122;BME280;1571;52.524;14.104;2022-11-03T04:59:19;101514.00;;;3.85;100.00
3122;BME280;1571;52.524;14.104;2022-11-03T05:01:49;101520.41;;;3.73;100.00
3122;BME280;1571;52.524;14.104;2022-11-03T05:04:18;101511.03;;;3.61;100.00
3122;BME280;1571;52.524;14.104;2022-11-03T05:06:50;101506.59;;;3.65;100.00
3122;BME280;1571;52.524;14.104;2022-11-03T05:09:22;101511.88;;;3.62;100.00
3122;BME280;1571;52.524;14.104;2022-11-03T05:11:51;101506.25;;;3.38;100.00
3122;BME280;1571;52.524;14.104;2022-11-03T05:14:22;101508.88;;;3.38;100.00
3122;BME280;1571;52.524;14.104;2022-11-03T05:16:54;101502.41;;;3.56;100.00
3122;BME280;1571;52.524;14.104;2022-11-03T05:19:25;101508.69;;;3.47;100.00
3122;BME280;1571;52.524;14.104;2022-11-03T05:21:55;101490.34;;;3.46;100.00
3122;BME280;1571;52.524;14.104;2022-11-03T05:24:25;101489.50;;;3.44;100.00
3122;BME280;1571;52.524;14.104;2022-11-03T05:26:55;101484.53;;;3.30;100.00
3122;BME280;1571;52.524;14.104;2022-11-03T05:29:31;101485.13;;;3.44;100.00
3122;BME280;1571;52.524;14.104;2022-11-03T05:32:09;101482.72;;;3.33;100.00
3122;BME280;1571;52.524;14.104;2022-11-03T05:34:42;101481.72;;;3.41;100.00
3122;BME280;1571;52.524;14.104;2022-11-03T05:37:21;101485.91;;;3.49;100.00
3122;BME280;1571;52.524;14.104;2022-11-03T05:39:55;101486.09;;;3.40;100.00
3122;BME280;1571;52.524;14.104;2022-11-03T05:42:30;101492.16;;;3.42;100.00
3122;BME280;1571;52.524;14.104;2022-11-03T05:45:01;101486.03;;;3.43;100.00
3122;BME280;1571;52.524;14.104;2022-11-03T05:47:38;101482.69;;;3.35;100.00
3122;BME280;1571;52.524;14.104;2022-11-03T05:50:18;101483.41;;;3.42;100.00
3122;BME280;1571;52.524;14.104;2022-11-03T05:52:49;101475.91;;;3.25;100.00
3122;BME280;1571;52.524;14.104;2022-11-03T05:55:25;101469.72;;;3.29;100.00
3122;BME280;1571;52.524;14.104;2022-11-03T05:57:56;101468.69;;;3.36;100.00
3122;BME280;1571;52.524;14.104;2022-11-03T06:00:27;101459.22;;;3.27;100.00
3122;BME280;1571;52.524;14.104;2022-11-03T06:02:58;101461.44;;;3.47;100.00
3122;BME280;1571;52.524;14.104;2022-11-03T06:05:30;101462.22;;;3.51;100.00
3122;BME280;1571;52.524;14.104;2022-11-03T06:08:01;101451.06;;;3.41;100.00
3122;BME280;1571;52.524;14.104;2022-11-03T06:10:35;101458.88;;;3.44;100.00
3122;BME280;1571;52.524;14.104;2022-11-03T06:13:12;101456.97;;;3.51;100.00
3122;BME280;1571;52.524;14.104;2022-11-03T06:15:45;101452.53;;;3.54;100.00
3122;BME280;1571;52.524;14.104;2022-11-03T06:18:18;101461.38;;;3.50;100.00
3122;BME280;1571;52.524;14.104;2022-11-03T06:20:50;101455.88;;;3.63;100.00
3122;BME280;1571;52.524;14.104;2022-11-03T06:23:21;101460.91;;;3.72;100.00
3122;BME280;1571;52.524;14.104;2022-11-03T06:25:51;101476.03;;;3.61;100.00
3122;BME280;1571;52.524;14.104;2022-11-03T06:28:23;101471.47;;;3.69;100.00
3122;BME280;1571;52.524;14.104;2022-11-03T06:30:52;101473.00;;;3.79;100.00
3122;BME280;1571;52.524;14.104;2022-11-03T06:33:25;101477.00;;;3.57;100.00
3122;BME280;1571;52.524;14.104;2022-11-03T06:35:58;101478.31;;;3.76;100.00
3122;BME280;1571;52.524;14.104;2022-11-03T06:38:30;101486.88;;;3.84;100.00
3122;BME280;1571;52.524;14.104;2022-11-03T06:41:01;101485.78;;;3.94;100.00
3122;BME280;1571;52.524;14.104;2022-11-03T06:43:34;101482.84;;;4.07;100.00
3122;BME280;1571;52.524;14.104;2022-11-03T06:46:11;101469.56;;;4.14;100.00
3122;BME280;1571;52.524;14.104;2022-11-03T06:48:41;101464.56;;;4.04;100.00
3122;BME280;1571;52.524;14.104;2022-11-03T06:51:18;101473.41;;;3.98;100.00
3122;BME280;1571;52.524;14.104;2022-11-03T06:53:49;101474.00;;;4.11;100.00
3122;BME280;1571;52.524;14.104;2022-11-03T06:56:21;101465.28;;;4.09;100.00
3122;BME280;1571;52.524;14.104;2022-11-03T06:58:51;101466.22;;;4.08;100.00
3122;BME280;1571;52.524;14.104;2022-11-03T07:01:24;101463.59;;;4.08;100.00
3122;BME280;1571;52.524;14.104;2022-11-03T07:03:59;101458.69;;;4.28;100.00
3122;BME280;1571;52.524;14.104;2022-11-03T07:06:34;101458.72;;;4.27;100.00
3122;BME280;1571;52.524;14.104;2022-11-03T07:09:06;101464.06;;;4.24;100.00
3122;BME280;1571;52.524;14.104;2022-11-03T07:11:41;101461.25;;;4.31;100.00
3122;BME280;1571;52.524;14.104;2022-11-03T07:14:14;101459.28;;;4.40;100.00
3122;BME280;1571;52.524;14.104;2022-11-03T07:16:46;101460.78;;;4.50;100.00
3122;BME280;1571;52.524;14.104;2022-11-03T07:19:20;101459.06;;;4.49;100.00
3122;BME280;1571;52.524;14.104;2022-11-03T07:21:51;101459.91;;;4.49;100.00
3122;BME280;1571;52.524;14.104;2022-11-03T07:24:24;101463.84;;;4.67;100.00
3122;BME280;1571;52.524;14.104;2022-11-03T07:27:00;101462.75;;;4.74;100.00
3122;BME280;1571;52.524;14.104;2022-11-03T07:29:30;101459.72;;;4.90;100.00
3122;BME280;1571;52.524;14.104;2022-11-03T07:31:59;101450.75;;;4.97;100.00
3122;BME280;1571;52.524;14.104;2022-11-03T07:34:31;101454.00;;;5.07;100.00
3122;BME280;1571;52.524;14.104;2022-11-03T07:37:01;101445.31;;;5.03;100.00
3122;BME280;1571;52.524;14.104;2022-11-03T07:39:32;101439.75;;;5.14;100.00
3122;BME280;1571;52.524;14.104;2022-11-03T07:42:04;101434.63;;;5.09;100.00
3122;BME280;1571;52.524;14.104;2022-11-03T07:44:39;101425.53;;;5.19;100.00
3122;BME280;1571;52.524;14.104;2022-11-03T07:47:11;101421.56;;;5.36;100.00
3122;BME280;1571;52.524;14.104;2022-11-03T07:49:45;101408.41;;;5.36;100.00
3122;BME280;1571;52.524;14.104;2022-11-03T07:52:18;101413.84;;;5.58;100.00
3122;BME280;1571;52.524;14.104;2022-11-03T07:54:47;101397.06;;;5.90;100.00
3122;BME280;1571;52.524;14.104;2022-11-03T07:57:20;101386.06;;;5.76;100.00
3122;BME280;1571;52.524;14.104;2022-11-03T07:59:52;101384.78;;;5.89;100.00
3122;BME280;1571;52.524;14.104;2022-11-03T08:02:30;101384.25;;;5.78;100.00
3122;BME280;1571;52.524;14.104;2022-11-03T08:05:07;101384.97;;;5.83;100.00
3122;BME280;1571;52.524;14.104;2022-11-03T08:07:36;101382.78;;;5.97;100.00
3122;BME280;1571;52.524;14.104;2022-11-03T08:10:05;101383.78;;;6.20;100.00
3122;BME280;1571;52.524;14.104;2022-11-03T08:12:34;101393.06;;;6.32;100.00
3122;BME280;1571;52.524;14.104;2022-11-03T08:15:03;101370.66;;;6.43;100.00
3122;BME280;1571;52.524;14.104;2022-11-03T08:17:33;101373.69;;;6.58;100.00
3122;BME280;1571;52.524;14.104;2022-11-03T08:20:03;101361.69;;;6.73;100.00
3122;BME280;1571;52.524;14.104;2022-11-03T08:22:32;101359.19;;;6.93;100.00
3122;BME280;1571;52.524;14.104;2022-11-03T08:25:01;101344.97;;;7.21;100.00
3122;BME280;1571;52.524;14.104;2022-11-03T08:27:30;101347.47;;;7.24;100.00
3122;BME280;1571;52.524;14.104;2022-11-03T08:29:58;101350.22;;;7.43;100.00
3122;BME280;1571;52.524;14.104;2022-11-03T08:32:27;101342.81;;;7.53;100.00
3122;BME280;1571;52.524;14.104;2022-11-03T08:34:57;101348.44;;;7.65;100.00
3122;BME280;1571;52.524;14.104;2022-11-03T08:37:27;101338.84;;;7.85;100.00
3122;BME280;1571;52.524;14.104;2022-11-03T08:39:56;101339.78;;;7.84;100.00
3122;BME280;1571;52.524;14.104;2022-11-03T08:42:24;101329.63;;;7.95;100.00
3122;BME280;1571;52.524;14.104;2022-11-03T08:44:53;101323.34;;;7.98;100.00
3122;BME280;1571;52.524;14.104;2022-11-03T08:47:22;101326.41;;;8.09;100.00
3122;BME280;1571;52.524;14.104;2022-11-03T08:49:50;101315.75;;;8.31;100.00
3122;BME280;1571;52.524;14.104;2022-11-03T08:52:18;101320.75;;;8.37;100.00
3122;BME280;1571;52.524;14.104;2022-11-03T08:54:49;101312.53;;;8.45;100.00
3122;BME280;1571;52.524;14.104;2022-11-03T08:57:20;101315.84;;;8.69;100.00
3122;BME280;1571;52.524;14.104;2022-11-03T08:59:48;101313.59;;;8.99;100.00
3122;BME280;1571;52.524;14.104;2022-11-03T09:02:18;101315.22;;;9.02;99.99
3122;BME280;1571;52.524;14.104;2022-11-03T09:04:47;101316.38;;;9.15;98.79
3122;BME280;1571;52.524;14.104;2022-11-03T09:07:16;101312.13;;;9.30;97.54
3122;BME280;1571;52.524;14.104;2022-11-03T09:09:45;101304.94;;;9.51;96.61
3122;BME280;1571;52.524;14.104;2022-11-03T09:12:36;101304.91;;;9.33;95.56
3122;BME280;1571;52.524;14.104;2022-11-03T09:15:05;101302.91;;;9.56;94.67
3122;BME280;1571;52.524;14.104;2022-11-03T09:17:34;101298.63;;;9.53;94.36
3122;BME280;1571;52.524;14.104;2022-11-03T09:20:08;101292.34;;;9.91;93.27
3122;BME280;1571;52.524;14.104;2022-11-03T09:22:37;101291.56;;;9.71;92.70
3122;BME280;1571;52.524;14.104;2022-11-03T09:25:07;101287.31;;;9.50;92.59
3122;BME280;1571;52.524;14.104;2022-11-03T09:27:38;101285.41;;;9.71;92.53
3122;BME280;1571;52.524;14.104;2022-11-03T09:30:07;101281.13;;;9.68;92.46
3122;BME280;1571;52.524;14.104;2022-11-03T09:32:40;101277.50;;;9.52;92.65
3122;BME280;1571;52.524;14.104;2022-11-03T09:35:12;101269.31;;;9.74;92.67
3122;BME280;1571;52.524;14.104;2022-11-03T09:37:43;101277.50;;;9.69;91.82
3122;BME280;1571;52.524;14.104;2022-11-03T09:40:13;101277.50;;;9.69;91.39
3122;BME280;1571;52.524;14.104;2022-11-03T09:42:44;101273.91;;;9.70;90.85
3122;BME280;1571;52.524;14.104;2022-11-03T09:45:13;101262.28;;;10.08;90.47
3122;BME280;1571;52.524;14.104;2022-11-03T09:47:43;101264.03;;;10.09;90.30
3122;BME280;1571;52.524;14.104;2022-11-03T09:50:14;101262.34;;;10.24;89.48
3122;BME280;1571;52.524;14.104;2022-11-03T09:52:46;101258.31;;;10.34;89.30
3122;BME280;1571;52.524;14.104;2022-11-03T09:55:24;101263.44;;;10.37;88.77
3122;BME280;1571;52.524;14.104;2022-11-03T09:57:58;101245.97;;;10.33;88.62
3122;BME280;1571;52.524;14.104;2022-11-03T10:00:29;101251.41;;;10.47;88.39
3122;BME280;1571;52.524;14.104;2022-11-03T10:02:57;101247.06;;;10.62;87.82
3122;BME280;1571;52.524;14.104;2022-11-03T10:05:26;101235.06;;;10.71;87.46
3122;BME280;1571;52.524;14.104;2022-11-03T10:07:56;101235.06;;;10.87;87.02
3122;BME280;1571;52.524;14.104;2022-11-03T10:10:26;101234.03;;;10.89;85.89
3122;BME280;1571;52.524;14.104;2022-11-03T10:12:58;101235.25;;;10.83;86.02
3122;BME280;1571;52.524;14.104;2022-11-03T10:15:29;101221.72;;;10.88;85.50
3122;BME280;1571;52.524;14.104;2022-11-03T10:18:01;101221.19;;;10.97;85.08
3122;BME280;1571;52.524;14.104;2022-11-03T10:20:31;101223.41;;;10.89;85.29
3122;BME280;1571;52.524;14.104;2022-11-03T10:23:00;101214.00;;;10.99;85.13
3122;BME280;1571;52.524;14.104;2022-11-03T10:25:34;101214.34;;;10.93;84.71
3122;BME280;1571;52.524;14.104;2022-11-03T10:28:16;101212.38;;;11.13;84.56
3122;BME280;1571;52.524;14.104;2022-11-03T10:30:53;101197.81;;;11.34;84.44
3122;BME280;1571;52.524;14.104;2022-11-03T10:33:40;101198.00;;;11.31;84.67
3122;BME280;1571;52.524;14.104;2022-11-03T10:36:22;101194.50;;;11.31;83.94
3122;BME280;1571;52.524;14.104;2022-11-03T10:38:53;101192.66;;;11.47;83.89
3122;BME280;1571;52.524;14.104;2022-11-03T10:41:22;101185.63;;;11.46;83.31
3122;BME280;1571;52.524;14.104;2022-11-03T10:44:04;101187.97;;;11.36;82.72
3122;BME280;1571;52.524;14.104;2022-11-03T10:46:34;101184.25;;;11.39;82.70
3122;BME280;1571;52.524;14.104;2022-11-03T10:49:18;101179.59;;;11.73;82.38
3122;BME280;1571;52.524;14.104;2022-11-03T10:51:49;101176.63;;;11.49;82.08
3122;BME280;1571;52.524;14.104;2022-11-03T10:54:19;101178.81;;;11.71;81.67
3122;BME280;1571;52.524;14.104;2022-11-03T10:56:50;101171.69;;;11.57;81.46
3122;BME280;1571;52.524;14.104;2022-11-03T10:59:25;101175.25;;;11.86;80.39
3122;BME280;1571;52.524;14.104;2022-11-03T11:01:58;101168.91;;;11.88;80.25
3122;BME280;1571;52.524;14.104;2022-11-03T11:04:27;101156.75;;;11.99;79.74
3122;BME280;1571;52.524;14.104;2022-11-03T11:06:56;101157.44;;;12.02;79.47
3122;BME280;1571;52.524;14.104;2022-11-03T11:09:27;101150.38;;;11.87;79.39
3122;BME280;1571;52.524;14.104;2022-11-03T11:12:01;101140.78;;;12.13;79.45
3122;BME280;1571;52.524;14.104;2022-11-03T11:14:51;101139.44;;;12.35;78.99
3122;BME280;1571;52.524;14.104;2022-11-03T11:17:49;101134.50;;;12.43;78.03
3122;BME280;1571;52.524;14.104;2022-11-03T11:20:40;101131.06;;;12.41;78.07
3122;BME280;1571;52.524;14.104;2022-11-03T11:26:40;101122.72;;;12.33;75.88
3122;BME280;1571;52.524;14.104;2022-11-03T11:29:43;101123.09;;;12.41;75.58
3122;BME280;1571;52.524;14.104;2022-11-03T11:39:08;101103.13;;;12.61;73.58
3122;BME280;1571;52.524;14.104;2022-11-03T11:42:06;101099.16;;;12.54;74.08
3122;BME280;1571;52.524;14.104;2022-11-03T11:47:50;101093.69;;;12.42;75.30
3122;BME280;1571;52.524;14.104;2022-11-03T11:50:26;101097.06;;;12.17;75.56
3122;BME280;1571;52.524;14.104;2022-11-03T11:53:10;101094.78;;;12.25;75.64
3122;BME280;1571;52.524;14.104;2022-11-03T11:55:43;101093.69;;;12.42;75.94
3122;BME280;1571;52.524;14.104;2022-11-03T11:58:19;101090.41;;;12.10;75.55
3122;BME280;1571;52.524;14.104;2022-11-03T12:00:58;101084.75;;;12.29;75.34
3122;BME280;1571;52.524;14.104;2022-11-03T12:03:45;101076.03;;;12.27;75.26
3122;BME280;1571;52.524;14.104;2022-11-03T12:06:15;101073.88;;;12.19;75.37
3122;BME280;1571;52.524;14.104;2022-11-03T12:08:43;101068.91;;;12.27;75.35
3122;BME280;1571;52.524;14.104;2022-11-03T12:11:12;101066.50;;;12.37;75.13
3122;BME280;1571;52.524;14.104;2022-11-03T12:13:43;101070.84;;;12.38;75.96
3122;BME280;1571;52.524;14.104;2022-11-03T12:16:33;101056.38;;;12.57;75.27
3122;BME280;1571;52.524;14.104;2022-11-03T12:19:39;101051.81;;;12.17;75.24
3122;BME280;1571;52.524;14.104;2022-11-03T12:22:09;101052.41;;;12.08;75.63
3122;BME280;1571;52.524;14.104;2022-11-03T12:24:47;101045.72;;;12.15;75.17
3122;BME280;1571;52.524;14.104;2022-11-03T12:27:40;101050.16;;;12.29;74.96
3122;BME280;1571;52.524;14.104;2022-11-03T12:30:15;101043.91;;;12.30;75.18
3122;BME280;1571;52.524;14.104;2022-11-03T12:32:46;101041.06;;;12.19;75.61
3122;BME280;1571;52.524;14.104;2022-11-03T12:35:16;101046.84;;;12.25;75.69
3122;BME280;1571;52.524;14.104;2022-11-03T12:37:45;101046.31;;;12.06;76.03
3122;BME280;1571;52.524;14.104;2022-11-03T12:40:14;101046.56;;;12.16;76.32
3122;BME280;1571;52.524;14.104;2022-11-03T12:42:42;101036.69;;;12.18;76.79
3122;BME280;1571;52.524;14.104;2022-11-03T12:45:16;101038.72;;;12.00;77.34
3122;BME280;1571;52.524;14.104;2022-11-03T12:47:44;101044.41;;;12.08;77.31
3122;BME280;1571;52.524;14.104;2022-11-03T12:50:32;101037.03;;;11.84;77.92
3122;BME280;1571;52.524;14.104;2022-11-03T12:53:00;101026.38;;;11.84;78.63
3122;BME280;1571;52.524;14.104;2022-11-03T12:55:29;101020.91;;;11.87;78.44
3122;BME280;1571;52.524;14.104;2022-11-03T12:57:57;101015.75;;;11.84;78.73
3122;BME280;1571;52.524;14.104;2022-11-03T13:00:27;101016.22;;;11.77;78.88
3122;BME280;1571;52.524;14.104;2022-11-03T13:02:55;101014.03;;;11.83;78.50
3122;BME280;1571;52.524;14.104;2022-11-03T13:05:24;101009.66;;;11.68;79.03
3122;BME280;1571;52.524;14.104;2022-11-03T13:07:55;101013.63;;;11.75;78.96
3122;BME280;1571;52.524;14.104;2022-11-03T13:10:27;101000.72;;;11.83;78.91
3122;BME280;1571;52.524;14.104;2022-11-03T13:12:55;101000.00;;;11.67;79.08
3122;BME280;1571;52.524;14.104;2022-11-03T13:15:24;100992.19;;;11.64;79.50
3122;BME280;1571;52.524;14.104;2022-11-03T13:17:52;100992.94;;;11.80;79.30
3122;BME280;1571;52.524;14.104;2022-11-03T13:20:39;100982.94;;;11.84;79.51
3122;BME280;1571;52.524;14.104;2022-11-03T13:23:10;100974.03;;;11.85;79.75
3122;BME280;1571;52.524;14.104;2022-11-03T13:25:42;100975.31;;;12.06;78.90
3122;BME280;1571;52.524;14.104;2022-11-03T13:28:12;100966.03;;;11.99;79.43
3122;BME280;1571;52.524;14.104;2022-11-03T13:30:41;100974.31;;;11.95;78.61
3122;BME280;1571;52.524;14.104;2022-11-03T13:33:09;100964.06;;;11.88;78.60
3122;BME280;1571;52.524;14.104;2022-11-03T13:35:38;100966.72;;;11.88;78.40
3122;BME280;1571;52.524;14.104;2022-11-03T13:38:07;100969.56;;;11.85;78.75
3122;BME280;1571;52.524;14.104;2022-11-03T13:40:38;100952.59;;;11.74;79.57
3122;BME280;1571;52.524;14.104;2022-11-03T13:43:27;100945.44;;;11.74;79.73